createdAt,value
2018-01-31T01:52:20.624Z,5.37
2018-01-31T01:52:58.007Z,4.00
2018-01-31T01:55:24.920Z,5.20
2018-01-31T01:57:51.890Z,2.87
2018-01-31T02:00:18.894Z,3.33
2018-01-31T02:02:45.853Z,3.00
2018-01-31T02:17:36.331Z,3.90
2018-01-31T02:32:37.182Z,4.50
2018-01-31T02:47:35.040Z,3.47
2018-01-31T03:02:34.735Z,3.13
2018-01-31T03:17:35.528Z,4.87
2018-01-31T03:32:34.442Z,3.80
2018-01-31T03:47:36.428Z,5.13
2018-01-31T04:02:36.372Z,3.50
2018-01-31T04:17:34.437Z,4.13
2018-01-31T04:32:34.448Z,20.30
2018-01-31T04:47:34.334Z,30.50
2018-01-31T05:02:37.318Z,37.13
2018-01-31T05:17:41.697Z,30.60
2018-01-31T05:32:36.644Z,27.57
2018-01-31T05:47:35.500Z,19.47
2018-01-31T06:02:34.483Z,16.00
2018-01-31T06:17:34.381Z,15.13
2018-01-31T06:32:36.783Z,18.73
2018-01-31T06:47:34.822Z,17.47
2018-01-31T07:02:35.757Z,22.10
2018-01-31T07:17:35.243Z,21.48
2018-01-31T07:32:37.081Z,22.13
2018-01-31T07:47:34.903Z,23.70
2018-01-31T08:02:36.595Z,19.57
2018-01-31T08:17:34.080Z,20.40
2018-01-31T08:32:37.274Z,17.63
2018-01-31T08:47:35.029Z,16.97
2018-01-31T09:02:36.888Z,15.07
2018-01-31T09:17:34.385Z,13.30
2018-01-31T09:32:35.346Z,12.90
2018-01-31T09:47:38.960Z,38.53
2018-01-31T10:02:36.148Z,35.20
2018-01-31T10:17:34.548Z,39.70
2018-01-31T10:32:38.344Z,47.90
2018-01-31T10:47:38.241Z,44.93
2018-01-31T11:02:34.333Z,40.93
2018-01-31T11:17:37.841Z,29.63
2018-01-31T11:32:36.978Z,29.70
2018-01-31T11:47:37.004Z,26.33
2018-01-31T12:02:36.613Z,18.57
2018-01-31T12:17:34.199Z,11.80
2018-01-31T12:32:46.951Z,17.63
2018-01-31T12:47:46.835Z,19.83
2018-01-31T13:17:46.212Z,22.67
2018-01-31T13:32:46.340Z,22.70
2018-01-31T13:47:46.103Z,26.93
2018-01-31T14:02:47.182Z,31.43
2018-01-31T14:17:48.544Z,29.90
2018-01-31T14:32:47.004Z,27.27
2018-01-31T14:47:34.123Z,24.53
2018-01-31T15:02:36.147Z,24.10
2018-01-31T15:17:36.228Z,32.93
2018-01-31T15:32:36.112Z,34.23
2018-01-31T15:47:37.320Z,26.90
2018-01-31T16:02:34.594Z,25.40
2018-01-31T16:17:34.840Z,36.90
2018-01-31T16:32:51.263Z,44.53
2018-01-31T16:47:36.566Z,69.67
2018-01-31T17:02:49.079Z,80.13
2018-01-31T17:17:36.324Z,90.30
2018-01-31T17:32:36.122Z,110.17
2018-01-31T17:47:43.962Z,116.43
2018-01-31T18:02:35.665Z,100.47
2018-01-31T18:17:36.983Z,94.43
2018-01-31T18:32:36.398Z,95.73
2018-01-31T18:47:34.805Z,86.07
2018-01-31T19:02:35.578Z,126.20
2018-01-31T19:17:36.024Z,127.93
2018-01-31T19:32:43.311Z,105.23
2018-01-31T19:47:34.786Z,67.90
2018-01-31T20:02:36.454Z,66.37
2018-01-31T20:17:35.826Z,65.60
2018-01-31T20:32:34.358Z,58.43
2018-01-31T20:47:33.579Z,58.80
2018-01-31T21:02:34.307Z,51.40
2018-01-31T21:17:33.695Z,65.00
2018-01-31T21:32:33.606Z,74.37
2018-01-31T21:47:35.911Z,71.80
2018-01-31T22:02:36.519Z,63.00
2018-01-31T22:17:36.643Z,61.80
2018-01-31T22:32:35.018Z,43.20
2018-01-31T22:47:41.012Z,69.07
2018-01-31T23:02:40.494Z,73.53
2018-01-31T23:17:40.210Z,68.97
2018-01-31T23:32:40.118Z,82.33
2018-01-31T23:47:35.498Z,84.00
